Time;durP1;ratioP1;P1;durP2;ratioP2;P2;SDS_P1;SDS_P2;PMS_P1;PMS_P2;Temp;Humidity;BMP_temperature;BMP_pressure;BME280_temperature;BME280_humidity;BME280_pressure;Samples;Min_cycle;Max_cycle;Signal;HPM_P1;HPM_P2
2023/10/28 00:00:30;;;;;;;2.60;1.50;;;;;;;10.98;71.79;94784.25;4986916;28;20558;-70
2023/10/28 00:02:56;;;;;;;1.90;1.30;;;;;;;10.83;71.89;94777.50;4986730;28;20177;-73
2023/10/28 00:05:22;;;;;;;1.47;1.23;;;;;;;11.08;71.05;94776.56;4986477;28;20262;-74
2023/10/28 00:07:47;;;;;;;2.10;1.17;;;;;;;10.99;70.42;94778.91;4986727;28;20185;-72
2023/10/28 00:10:13;;;;;;;2.50;1.10;;;;;;;10.98;70.36;94777.25;4986999;28;20415;-73
2023/10/28 00:12:39;;;;;;;1.97;1.10;;;;;;;11.14;69.44;94773.50;4987013;28;20211;-73
2023/10/28 00:15:05;;;;;;;1.80;1.00;;;;;;;11.16;68.76;94775.06;4986627;28;20413;-71
2023/10/28 00:17:31;;;;;;;3.63;1.23;;;;;;;10.95;69.48;94782.69;4986381;28;20428;-73
2023/10/28 00:19:56;;;;;;;2.20;1.30;;;;;;;10.84;69.84;94780.00;4986821;28;20416;-70
2023/10/28 00:22:22;;;;;;;2.40;1.43;;;;;;;10.86;69.65;94785.13;4987089;28;20184;-71
2023/10/28 00:24:47;;;;;;;2.90;1.73;;;;;;;10.82;69.83;94784.53;4987199;28;20181;-71
2023/10/28 00:27:14;;;;;;;1.53;1.00;;;;;;;10.75;70.31;94781.50;4986841;28;20682;-73
2023/10/28 00:29:40;;;;;;;2.43;1.30;;;;;;;10.83;69.47;94793.25;4987130;28;20306;-70
2023/10/28 00:32:06;;;;;;;2.20;0.90;;;;;;;10.90;69.40;94791.84;4986915;28;20831;-72
2023/10/28 00:34:32;;;;;;;1.87;0.80;;;;;;;10.84;68.64;94798.34;4986817;28;20538;-72
2023/10/28 00:37:01;;;;;;;1.10;0.70;;;;;;;10.91;68.49;94798.78;4987308;28;20207;-72
2023/10/28 00:39:26;;;;;;;1.63;0.90;;;;;;;10.94;69.29;94798.56;4987036;28;21166;-72
2023/10/28 00:41:51;;;;;;;3.33;1.00;;;;;;;10.87;69.24;94802.56;4987185;28;20413;-71
2023/10/28 00:44:17;;;;;;;2.87;1.10;;;;;;;10.91;69.11;94812.72;4986913;28;20200;-72
2023/10/28 00:46:43;;;;;;;2.07;1.50;;;;;;;10.85;68.94;94807.09;4987209;28;20204;-72
2023/10/28 00:49:09;;;;;;;2.90;1.07;;;;;;;10.87;68.97;94805.19;4987007;28;20550;-72
2023/10/28 00:51:35;;;;;;;1.43;0.93;;;;;;;10.89;69.82;94803.28;4987088;28;20448;-73
2023/10/28 00:54:00;;;;;;;1.87;0.90;;;;;;;11.00;68.58;94809.44;4986811;28;20560;-72
2023/10/28 00:56:25;;;;;;;1.90;1.00;;;;;;;10.89;69.54;94814.66;4986913;28;20668;-73
2023/10/28 00:58:52;;;;;;;2.17;0.90;;;;;;;10.80;70.48;94813.50;4986825;28;20184;-72
2023/10/28 01:01:19;;;;;;;4.00;1.03;;;;;;;10.87;69.13;94803.41;4986866;28;20177;-72
2023/10/28 01:03:45;;;;;;;1.10;0.70;;;;;;;10.73;70.05;94811.41;4986649;28;20906;-72
2023/10/28 01:06:12;;;;;;;2.30;0.97;;;;;;;10.84;69.71;94805.41;4986902;28;20428;-72
2023/10/28 01:08:38;;;;;;;1.70;0.90;;;;;;;10.78;70.00;94809.31;4987376;28;20177;-72
2023/10/28 01:11:04;;;;;;;2.20;0.83;;;;;;;10.82;70.37;94810.78;4986881;28;20463;-72
2023/10/28 01:13:30;;;;;;;1.63;1.00;;;;;;;10.84;69.38;94805.41;4986993;28;20953;-72
2023/10/28 01:15:55;;;;;;;2.50;1.43;;;;;;;10.80;70.22;94807.41;4986502;28;20240;-72
2023/10/28 01:18:21;;;;;;;2.00;0.97;;;;;;;10.72;70.08;94804.47;4986447;28;20443;-75
2023/10/28 01:20:47;;;;;;;3.83;1.40;;;;;;;10.66;70.52;94805.75;4986607;28;20180;-73
2023/10/28 01:23:12;;;;;;;1.17;0.80;;;;;;;10.60;70.61;94809.63;4988874;28;20262;-74
2023/10/28 01:25:38;;;;;;;1.70;1.00;;;;;;;10.69;70.05;94802.91;4990206;28;20291;-70
2023/10/28 01:28:03;;;;;;;3.20;1.00;;;;;;;10.69;70.31;94804.69;4990280;28;20211;-73
2023/10/28 01:30:29;;;;;;;2.63;1.13;;;;;;;10.56;70.71;94807.34;4990419;28;20684;-72
2023/10/28 01:32:55;;;;;;;3.10;1.23;;;;;;;10.56;70.26;94807.34;4989892;28;20209;-73
2023/10/28 01:35:20;;;;;;;1.77;1.30;;;;;;;10.68;70.37;94810.91;4989534;28;20173;-72
2023/10/28 01:37:46;;;;;;;2.00;1.20;;;;;;;10.84;69.23;94802.78;4988391;28;20181;-71
2023/10/28 01:40:14;;;;;;;1.77;1.30;;;;;;;10.77;69.69;94811.09;4989907;28;20258;-73
2023/10/28 01:42:44;;;;;;;2.27;1.07;;;;;;;10.62;70.31;94803.44;4989709;28;20169;-72
2023/10/28 01:45:10;;;;;;;1.80;1.20;;;;;;;10.62;70.66;94806.91;4989514;28;20432;-72
2023/10/28 01:47:38;;;;;;;2.40;1.23;;;;;;;10.56;70.96;94802.09;4989718;28;20440;-72
2023/10/28 01:50:05;;;;;;;2.20;1.23;;;;;;;10.54;70.95;94810.06;4989477;28;20422;-73
2023/10/28 01:52:30;;;;;;;1.50;1.00;;;;;;;10.54;70.78;94811.84;4989424;28;20483;-72
2023/10/28 01:54:56;;;;;;;5.10;1.33;;;;;;;10.49;70.40;94812.19;4989371;28;20946;-73
2023/10/28 01:57:21;;;;;;;1.60;1.40;;;;;;;10.48;70.78;94817.50;4989388;28;20193;-72
2023/10/28 01:59:46;;;;;;;1.60;1.10;;;;;;;10.45;70.11;94812.50;4989666;28;20177;-73
2023/10/28 02:02:12;;;;;;;1.90;1.27;;;;;;;10.55;69.63;94816.16;4989708;28;20698;-73
2023/10/28 02:04:37;;;;;;;7.33;1.53;;;;;;;10.59;70.24;94812.38;4989249;28;20192;-72
2023/10/28 02:07:04;;;;;;;3.70;1.40;;;;;;;10.77;69.32;94824.22;4989488;28;20204;-73
2023/10/28 02:09:33;;;;;;;1.47;1.00;;;;;;;10.62;70.00;94825.25;4989570;28;20176;-72
2023/10/28 02:12:02;;;;;;;2.70;1.60;;;;;;;10.40;70.61;94825.91;4989371;28;20521;-72
2023/10/28 02:14:28;;;;;;;2.03;1.20;;;;;;;10.56;70.15;94823.91;4989233;28;20540;-71
2023/10/28 02:16:55;;;;;;;2.63;1.23;;;;;;;10.54;69.71;94820.56;4989556;28;20850;-72
2023/10/28 02:19:21;;;;;;;7.27;1.73;;;;;;;10.57;69.46;94825.59;4989061;28;20535;-71
2023/10/28 02:21:49;;;;;;;2.20;1.40;;;;;;;10.56;70.28;94820.47;4989320;28;20504;-72
2023/10/28 02:24:19;;;;;;;1.90;1.43;;;;;;;10.51;69.90;94825.16;4988993;28;20189;-72
2023/10/28 02:26:45;;;;;;;3.43;1.30;;;;;;;10.55;70.19;94821.38;4988572;28;20436;-70
2023/10/28 02:29:11;;;;;;;2.17;1.10;;;;;;;10.49;70.44;94822.66;4989026;28;20408;-72
2023/10/28 02:31:37;;;;;;;2.73;1.40;;;;;;;10.50;70.22;94823.50;4988877;28;20522;-73
2023/10/28 02:34:06;;;;;;;3.20;2.10;;;;;;;10.42;70.71;94818.78;4987429;28;20691;-72
2023/10/28 02:36:32;;;;;;;5.10;1.43;;;;;;;10.36;70.64;94825.28;4988499;28;20204;-72
2023/10/28 02:38:57;;;;;;;2.10;1.23;;;;;;;10.54;69.99;94823.19;4988885;28;20420;-71
2023/10/28 02:41:22;;;;;;;3.03;1.20;;;;;;;10.42;70.25;94831.03;4988963;28;20173;-71
2023/10/28 02:43:48;;;;;;;2.77;1.20;;;;;;;10.47;70.31;94832.41;4988423;28;20177;-72
2023/10/28 02:46:24;;;;;;;3.27;1.80;;;;;;;10.31;70.93;94829.16;4988847;28;20713;-71
2023/10/28 02:48:51;;;;;;;3.67;1.93;;;;;;;10.36;70.95;94833.13;4988989;28;20178;-71
2023/10/28 02:51:17;;;;;;;2.60;1.40;;;;;;;10.43;70.46;94830.94;4989054;28;20459;-72
2023/10/28 02:53:43;;;;;;;3.73;1.40;;;;;;;10.32;70.93;94846.56;4989089;28;20958;-72
2023/10/28 02:56:08;;;;;;;6.63;1.47;;;;;;;10.39;70.75;94847.81;4988829;28;20470;-72
2023/10/28 02:58:34;;;;;;;2.43;1.53;;;;;;;10.30;71.42;94849.31;4988826;28;20188;-72
2023/10/28 03:01:13;;;;;;;2.80;1.67;;;;;;;10.30;70.81;94845.81;4988404;28;20276;-72
2023/10/28 03:03:39;;;;;;;3.97;1.90;;;;;;;10.25;70.53;94843.50;4988443;28;20423;-72
2023/10/28 03:06:05;;;;;;;2.37;1.40;;;;;;;10.37;70.62;94847.94;4988223;28;20439;-73
2023/10/28 03:08:31;;;;;;;9.60;1.80;;;;;;;10.34;70.63;94845.50;4988441;28;20408;-73
2023/10/28 03:10:57;;;;;;;3.43;1.30;;;;;;;10.32;70.70;94850.03;4988290;28;20458;-72
2023/10/28 03:13:22;;;;;;;4.77;1.43;;;;;;;10.36;70.60;94843.63;4988404;28;21022;-73
2023/10/28 03:15:48;;;;;;;6.53;1.87;;;;;;;10.32;70.74;94847.44;4987826;28;20655;-70
2023/10/28 03:18:13;;;;;;;6.07;1.30;;;;;;;10.32;70.29;94842.19;4988154;28;20180;-72
2023/10/28 03:20:39;;;;;;;1.60;1.03;;;;;;;10.38;70.08;94841.75;4988046;28;20209;-73
2023/10/28 03:23:05;;;;;;;1.63;1.00;;;;;;;10.48;69.74;94847.19;4988020;28;20185;-74
2023/10/28 03:25:31;;;;;;;3.00;1.23;;;;;;;10.36;70.60;94848.03;4987711;28;20173;-72
2023/10/28 03:27:57;;;;;;;2.60;1.20;;;;;;;10.29;70.58;94844.97;4987675;28;20660;-73
2023/10/28 03:30:22;;;;;;;3.80;1.10;;;;;;;10.42;70.57;94854.63;4987717;28;20420;-73
2023/10/28 03:32:48;;;;;;;2.60;1.13;;;;;;;10.36;70.40;94848.03;4987782;28;20232;-72
2023/10/28 03:35:13;;;;;;;2.53;1.27;;;;;;;10.44;70.38;94855.38;4987764;28;20176;-73
2023/10/28 03:37:39;;;;;;;2.43;1.03;;;;;;;10.34;70.67;94858.63;4987990;28;20192;-72
2023/10/28 03:40:05;;;;;;;1.30;1.10;;;;;;;10.27;71.26;94856.50;4987968;28;20177;-71
2023/10/28 03:42:30;;;;;;;3.10;1.13;;;;;;;10.33;70.67;94859.56;4988082;28;20192;-70
2023/10/28 03:44:56;;;;;;;3.83;1.20;;;;;;;10.21;70.93;94856.91;4987322;28;20800;-73
2023/10/28 03:47:22;;;;;;;1.70;1.00;;;;;;;10.24;70.91;94852.28;4988082;28;20200;-73
2023/10/28 03:49:48;;;;;;;2.80;1.20;;;;;;;10.27;71.13;94851.25;4992101;28;20503;-73
2023/10/28 03:52:13;;;;;;;3.20;1.50;;;;;;;10.29;71.01;94858.09;4994384;28;20196;-72
2023/10/28 03:54:39;;;;;;;4.20;1.33;;;;;;;10.30;71.04;94858.94;4994543;28;20240;-74
2023/10/28 03:57:04;;;;;;;4.03;1.07;;;;;;;10.28;70.61;94856.44;4996708;28;20282;-74
2023/10/28 03:59:30;;;;;;;2.20;0.90;;;;;;;10.28;70.26;94864.28;4992835;28;20180;-71
2023/10/28 04:01:55;;;;;;;1.63;1.13;;;;;;;10.35;70.01;94865.56;4994479;28;20172;-73
2023/10/28 04:04:21;;;;;;;2.10;1.10;;;;;;;10.40;70.37;94865.25;4989117;28;20209;-71
2023/10/28 04:06:46;;;;;;;5.27;1.10;;;;;;;10.38;70.38;94869.75;4995441;28;20652;-73
2023/10/28 04:09:14;;;;;;;1.57;1.00;;;;;;;10.39;70.03;94871.41;4990260;28;20770;-73
2023/10/28 04:11:39;;;;;;;2.50;0.90;;;;;;;10.34;70.64;94869.09;4994897;28;20200;-71
2023/10/28 04:14:05;;;;;;;4.07;1.17;;;;;;;10.28;70.21;94866.91;4987772;28;20412;-72
2023/10/28 04:16:30;;;;;;;3.30;1.30;;;;;;;10.27;70.57;94865.19;4965127;28;20216;-72
2023/10/28 04:18:56;;;;;;;1.50;1.00;;;;;;;10.22;71.37;94867.28;4995491;28;20852;-73
2023/10/28 04:21:21;;;;;;;1.10;0.90;;;;;;;10.22;71.31;94863.81;4988263;28;20177;-72
2023/10/28 04:23:47;;;;;;;3.23;1.00;;;;;;;10.13;71.81;94865.28;4981652;28;20181;-73
2023/10/28 04:26:12;;;;;;;2.53;1.00;;;;;;;10.14;71.33;94867.81;4990522;28;20255;-74
2023/10/28 04:28:38;;;;;;;5.83;1.33;;;;;;;10.20;71.13;94868.34;4990709;28;20275;-73
2023/10/28 04:31:03;;;;;;;1.50;1.10;;;;;;;10.22;71.67;94872.53;4990597;28;20675;-71
2023/10/28 04:33:29;;;;;;;1.57;1.10;;;;;;;10.20;71.36;94871.78;4988105;28;20222;-71
2023/10/28 04:35:54;;;;;;;4.40;1.20;;;;;;;10.17;71.81;94879.88;4985788;28;20575;-73
2023/10/28 04:38:21;;;;;;;3.70;1.53;;;;;;;10.20;71.42;94879.66;4987563;28;20255;-72
2023/10/28 04:40:47;;;;;;;3.10;1.00;;;;;;;10.18;71.38;94876.28;4987235;28;20193;-72
2023/10/28 04:43:12;;;;;;;6.03;1.67;;;;;;;10.27;71.28;94875.69;4987057;28;20998;-72
2023/10/28 04:45:44;;;;;;;1.90;1.10;;;;;;;10.17;71.81;94878.06;4986878;28;20267;-70
2023/10/28 04:48:10;;;;;;;2.90;1.17;;;;;;;10.16;71.69;94876.41;4987442;28;20197;-73
2023/10/28 04:50:35;;;;;;;4.30;1.10;;;;;;;10.08;71.93;94872.59;4988063;28;20416;-73
2023/10/28 04:53:01;;;;;;;3.80;1.43;;;;;;;10.07;71.60;94878.81;4987294;28;21041;-73
2023/10/28 04:55:26;;;;;;;1.83;1.00;;;;;;;10.06;71.55;94882.34;4986711;28;20256;-72
2023/10/28 04:57:52;;;;;;;3.40;1.23;;;;;;;10.03;72.04;94885.19;4988581;28;20186;-73
2023/10/28 05:00:18;;;;;;;4.50;1.20;;;;;;;10.01;72.13;94885.28;4990612;28;20173;-72
2023/10/28 05:02:44;;;;;;;3.37;1.27;;;;;;;10.00;72.33;94882.78;4990968;28;20286;-72
2023/10/28 05:05:09;;;;;;;1.90;1.40;;;;;;;9.96;72.10;94887.38;4990597;28;21181;-74
2023/10/28 05:07:35;;;;;;;2.20;1.10;;;;;;;9.91;72.45;94890.28;4990458;28;20264;-72
2023/10/28 05:10:01;;;;;;;3.03;1.60;;;;;;;9.84;72.63;94883.75;4991993;28;20205;-71
2023/10/28 05:12:26;;;;;;;5.07;1.70;;;;;;;9.86;72.66;94875.81;4989388;28;20214;-71
2023/10/28 05:14:51;;;;;;;2.20;1.13;;;;;;;9.91;72.35;94879.81;4990403;28;20201;-72
2023/10/28 05:17:17;;;;;;;3.17;1.37;;;;;;;9.91;72.45;94884.22;4990603;28;20299;-70
2023/10/28 05:19:42;;;;;;;2.30;1.40;;;;;;;9.91;72.08;94884.22;4990852;28;20184;-71
2023/10/28 05:22:08;;;;;;;3.77;1.77;;;;;;;9.89;72.12;94886.91;4990361;28;20165;-72
2023/10/28 05:24:33;;;;;;;3.20;1.40;;;;;;;9.86;72.32;94892.38;4997196;28;20663;-72
2023/10/28 05:26:59;;;;;;;4.33;1.50;;;;;;;9.85;72.44;94889.84;4990284;28;20209;-72
2023/10/28 05:29:24;;;;;;;2.90;1.80;;;;;;;9.88;72.00;94881.81;4990084;28;20738;-73
2023/10/28 05:31:50;;;;;;;2.20;1.90;;;;;;;9.76;72.61;94886.06;4989887;28;20203;-72
2023/10/28 05:34:18;;;;;;;1.90;1.40;;;;;;;9.82;72.39;94879.56;4989854;28;20181;-71
2023/10/28 05:36:44;;;;;;;2.03;1.57;;;;;;;9.79;72.09;94890.25;4990188;28;20648;-73
2023/10/28 05:39:09;;;;;;;3.10;1.67;;;;;;;9.79;72.05;94885.84;4989956;28;20427;-72
2023/10/28 05:41:35;;;;;;;8.00;2.90;;;;;;;9.81;71.93;94889.22;4989376;28;20173;-71
2023/10/28 05:44:00;;;;;;;3.03;1.50;;;;;;;9.77;72.28;94889.50;4989396;28;20185;-72
2023/10/28 05:46:25;;;;;;;2.57;1.10;;;;;;;9.79;72.04;94885.84;4989600;28;20244;-71
2023/10/28 05:48:51;;;;;;;1.87;1.30;;;;;;;9.70;72.44;94891.69;4981230;28;20185;-71
2023/10/28 05:51:17;;;;;;;2.10;1.10;;;;;;;9.77;72.36;94892.13;4989549;28;20228;-72
2023/10/28 05:53:42;;;;;;;8.27;2.00;;;;;;;11.45;85.90;94879.81;4987988;28;20271;-70
2023/10/28 05:56:08;;;;;;;5.50;2.10;;;;;;;12.83;78.31;94881.91;4994657;28;20607;-70
2023/10/28 05:58:33;;;;;;;2.60;1.40;;;;;;;13.24;70.71;94878.66;4982776;28;20184;-70
2023/10/28 06:00:59;;;;;;;3.23;1.70;;;;;;;13.16;64.77;94890.75;4982830;28;20825;-69
2023/10/28 06:03:26;;;;;;;4.50;1.70;;;;;;;11.78;64.96;94899.34;4987371;28;20177;-69
2023/10/28 06:05:52;;;;;;;6.50;1.60;;;;;;;10.91;67.87;94901.94;4988560;28;20455;-69
2023/10/28 06:08:18;;;;;;;11.07;2.07;;;;;;;10.42;70.01;94907.09;4990171;28;20447;-69
2023/10/28 06:10:45;;;;;;;3.53;1.67;;;;;;;10.62;69.40;94906.59;4991231;28;20446;-68
2023/10/28 06:13:11;;;;;;;2.07;1.50;;;;;;;11.03;68.27;94910.75;4988786;28;20678;-70
2023/10/28 06:15:37;;;;;;;2.83;1.50;;;;;;;11.57;66.18;94910.44;4987905;28;20434;-67
2023/10/28 06:18:04;;;;;;;2.80;1.60;;;;;;;12.25;64.04;94900.31;4988929;28;20278;-69
2023/10/28 06:20:30;;;;;;;3.13;1.73;;;;;;;12.77;62.15;94906.88;4989046;28;20185;-68
2023/10/28 06:22:56;;;;;;;6.13;1.90;;;;;;;12.69;61.73;94904.00;4988952;28;20412;-69
2023/10/28 06:25:21;;;;;;;4.40;1.63;;;;;;;12.54;61.88;94897.28;4995155;28;20500;-68
2023/10/28 06:27:46;;;;;;;5.30;1.97;;;;;;;12.39;62.84;94915.88;4993862;28;20203;-69
2023/10/28 06:30:14;;;;;;;4.43;2.33;;;;;;;12.13;63.90;94917.81;4989034;28;20267;-66
2023/10/28 06:32:40;;;;;;;2.30;1.40;;;;;;;13.40;60.53;94911.75;4987976;28;20308;-68
2023/10/28 06:35:06;;;;;;;1.53;1.23;;;;;;;14.54;56.37;94914.78;4988520;28;20416;-68
2023/10/28 06:37:31;;;;;;;4.90;1.77;;;;;;;15.35;53.55;94917.59;4988538;28;20953;-69
2023/10/28 06:39:58;;;;;;;2.50;1.30;;;;;;;15.74;52.20;94920.44;4988864;28;20173;-68
2023/10/28 06:42:24;;;;;;;3.90;2.33;;;;;;;15.26;53.43;94926.34;4987606;28;20217;-69
2023/10/28 06:44:49;;;;;;;8.97;3.30;;;;;;;16.08;51.48;94930.66;4987683;28;20551;-68
2023/10/28 06:47:14;;;;;;;4.70;1.60;;;;;;;17.21;48.24;94926.56;4988747;28;20211;-68
2023/10/28 06:49:41;;;;;;;9.43;1.90;;;;;;;16.85;48.43;94927.22;4988751;28;20176;-69
2023/10/28 06:52:07;;;;;;;7.90;2.00;;;;;;;15.57;51.35;94939.56;4987760;28;20213;-69
2023/10/28 06:54:33;;;;;;;4.63;1.73;;;;;;;14.27;55.32;94940.78;4988166;28;20411;-69
2023/10/28 06:56:58;;;;;;;3.60;1.93;;;;;;;13.49;58.04;94940.00;4988463;28;20530;-68
2023/10/28 06:59:25;;;;;;;7.37;1.80;;;;;;;12.91;59.81;94951.41;4988090;28;20184;-68
2023/10/28 07:01:52;;;;;;;5.90;2.00;;;;;;;12.97;59.97;94952.78;4986674;28;20268;-69
2023/10/28 07:04:17;;;;;;;2.37;1.60;;;;;;;14.35;56.63;94952.38;4988306;28;20440;-68
2023/10/28 07:06:45;;;;;;;2.73;1.70;;;;;;;15.43;53.08;94948.69;4988563;28;20475;-68
2023/10/28 07:09:10;;;;;;;3.67;1.80;;;;;;;14.59;54.74;94954.84;4988200;28;20561;-68
2023/10/28 07:11:36;;;;;;;6.20;2.00;;;;;;;13.71;57.92;94958.44;4987335;28;20467;-68
2023/10/28 07:14:02;;;;;;;4.37;2.10;;;;;;;13.18;59.28;94968.72;4987397;28;20184;-68
2023/10/28 07:16:28;;;;;;;5.13;1.90;;;;;;;12.82;60.86;94970.53;4987892;28;20205;-68
2023/10/28 07:18:53;;;;;;;4.23;2.03;;;;;;;12.64;61.66;94970.16;4987894;28;20427;-68
2023/10/28 07:21:20;;;;;;;5.37;2.17;;;;;;;14.47;57.07;94968.19;4991358;28;20193;-69
2023/10/28 07:23:46;;;;;;;3.00;1.53;;;;;;;15.81;51.78;94966.53;4970672;28;20193;-68
2023/10/28 07:26:12;;;;;;;4.43;1.77;;;;;;;17.07;48.67;94963.16;4987627;28;20528;-68
2023/10/28 07:28:38;;;;;;;4.17;1.63;;;;;;;18.81;44.05;94967.78;4990641;28;20451;-67
2023/10/28 07:31:06;;;;;;;3.17;1.67;;;;;;;19.74;41.86;94959.31;4987468;28;20436;-68
2023/10/28 07:33:31;;;;;;;5.30;1.67;;;;;;;20.35;40.30;94958.19;4987415;28;20422;-69
2023/10/28 07:36:01;;;;;;;4.93;1.40;;;;;;;21.10;39.00;94960.00;4987474;28;20444;-69
2023/10/28 07:38:27;;;;;;;3.37;1.57;;;;;;;19.90;41.14;94964.72;4987356;28;20185;-69
2023/10/28 07:40:53;;;;;;;3.10;1.90;;;;;;;20.55;39.99;94963.22;4983197;28;20436;-69
2023/10/28 07:43:18;;;;;;;2.23;1.47;;;;;;;21.29;37.62;94945.47;4983190;28;20247;-68
2023/10/28 07:45:46;;;;;;;3.10;1.33;;;;;;;22.10;36.65;94947.09;4969521;28;20204;-68
2023/10/28 07:48:11;;;;;;;3.73;1.40;;;;;;;21.95;36.98;94946.16;4986438;28;20192;-69
2023/10/28 07:50:38;;;;;;;6.13;2.10;;;;;;;21.81;36.86;94950.38;4987252;28;20427;-69
2023/10/28 07:53:06;;;;;;;1.80;1.07;;;;;;;22.09;36.28;94953.44;4987169;28;20219;-68
2023/10/28 07:55:33;;;;;;;5.20;1.77;;;;;;;22.94;34.86;94955.31;4986981;28;20426;-69
2023/10/28 07:57:58;;;;;;;3.27;1.60;;;;;;;23.45;34.56;94960.09;4987455;28;20408;-68
2023/10/28 08:00:23;;;;;;;2.20;1.40;;;;;;;23.63;33.72;94962.44;4969882;28;20424;-68
2023/10/28 08:02:49;;;;;;;4.27;2.00;;;;;;;23.50;33.23;94967.56;4987515;28;20169;-69
2023/10/28 08:05:15;;;;;;;9.03;1.67;;;;;;;23.61;33.19;94964.47;4987153;28;20227;-69
2023/10/28 08:07:41;;;;;;;3.20;1.87;;;;;;;24.37;32.47;94958.91;4987496;28;20431;-69
2023/10/28 08:10:08;;;;;;;4.17;1.57;;;;;;;23.86;32.60;94976.63;4987488;28;20607;-68
2023/10/28 08:12:38;;;;;;;2.67;1.37;;;;;;;23.60;32.94;94978.88;4987461;28;20459;-68
2023/10/28 08:15:04;;;;;;;3.10;1.33;;;;;;;23.08;34.20;94975.16;4987295;28;20419;-69
2023/10/28 08:17:32;;;;;;;3.30;1.50;;;;;;;23.37;33.67;94982.41;4987204;28;20480;-69
2023/10/28 08:19:58;;;;;;;3.27;1.47;;;;;;;22.52;35.18;94975.31;4987147;28;20915;-69
2023/10/28 08:22:24;;;;;;;2.20;1.20;;;;;;;22.03;36.00;94988.03;4987139;28;20423;-68
2023/10/28 08:24:50;;;;;;;3.90;1.67;;;;;;;21.65;36.75;94993.97;4986872;28;20191;-69
2023/10/28 08:27:15;;;;;;;5.63;1.87;;;;;;;21.45;37.32;94987.31;4987006;28;20834;-71
2023/10/28 08:29:43;;;;;;;2.30;1.33;;;;;;;21.13;38.02;94989.81;4987166;28;20172;-69
2023/10/28 08:32:09;;;;;;;3.13;1.53;;;;;;;21.05;38.39;94986.34;4989260;28;20209;-69
2023/10/28 08:34:34;;;;;;;2.33;1.70;;;;;;;20.72;38.99;94983.63;4990812;28;20804;-69
2023/10/28 08:36:59;;;;;;;3.60;1.40;;;;;;;20.71;38.98;94979.28;4991300;28;20334;-71
2023/10/28 08:39:25;;;;;;;2.60;1.40;;;;;;;20.87;38.89;94971.31;4991380;28;20635;-69
2023/10/28 08:41:51;;;;;;;4.23;1.30;;;;;;;20.36;39.79;94983.84;4991363;28;20976;-69
2023/10/28 08:44:27;;;;;;;3.30;2.10;;;;;;;20.13;39.80;94983.63;4990903;28;20503;-69
2023/10/28 08:46:53;;;;;;;2.70;1.17;;;;;;;19.82;40.97;94993.97;4990383;28;20291;-69
2023/10/28 08:49:21;;;;;;;1.80;1.00;;;;;;;19.89;40.42;94989.69;4991183;28;20423;-69
2023/10/28 08:51:51;;;;;;;4.53;1.33;;;;;;;19.85;40.94;94994.47;4990978;28;20463;-68
2023/10/28 08:54:18;;;;;;;2.40;1.50;;;;;;;20.08;40.60;94993.91;4991065;28;20427;-69
2023/10/28 08:56:47;;;;;;;6.60;2.97;;;;;;;20.03;40.14;94998.88;4990891;28;20467;-69
2023/10/28 08:59:12;;;;;;;15.03;1.53;;;;;;;20.17;40.18;95002.75;4990856;28;20443;-69
2023/10/28 09:01:39;;;;;;;2.23;1.33;;;;;;;19.98;40.36;95004.66;4990567;28;20895;-67
2023/10/28 09:04:05;;;;;;;2.60;1.33;;;;;;;20.06;40.40;95010.03;4990531;28;20177;-69
2023/10/28 09:06:31;;;;;;;6.43;1.40;;;;;;;20.15;39.69;95004.75;4990857;28;20431;-70
2023/10/28 09:08:57;;;;;;;6.37;1.80;;;;;;;20.18;40.05;95005.28;4991221;28;20177;-69
2023/10/28 09:11:23;;;;;;;4.40;1.30;;;;;;;20.11;39.96;95006.09;4990795;28;20495;-68
2023/10/28 09:13:49;;;;;;;5.23;1.57;;;;;;;20.11;39.84;95008.75;4990681;28;20463;-68
2023/10/28 09:16:14;;;;;;;7.70;1.80;;;;;;;20.15;39.58;95002.06;4990575;28;20204;-69
2023/10/28 09:18:41;;;;;;;15.27;2.83;;;;;;;20.08;39.95;95000.06;4990614;28;20180;-67
2023/10/28 09:21:09;;;;;;;22.70;3.00;;;;;;;19.92;40.38;95002.66;4990405;28;20181;-69
2023/10/28 09:23:38;;;;;;;4.83;1.57;;;;;;;20.23;39.96;94996.81;4989998;28;20490;-69
2023/10/28 09:26:08;;;;;;;3.83;1.40;;;;;;;20.16;39.91;94998.44;4990825;28;20483;-69
2023/10/28 09:28:33;;;;;;;1.93;1.07;;;;;;;20.22;39.86;94995.13;4989992;28;20440;-67
2023/10/28 09:30:59;;;;;;;5.07;1.30;;;;;;;20.25;39.53;94994.81;4990024;28;20408;-69
2023/10/28 09:33:27;;;;;;;3.13;1.20;;;;;;;20.18;39.01;94996.44;4990383;28;20180;-68
2023/10/28 09:35:56;;;;;;;2.87;1.20;;;;;;;19.84;39.64;94994.63;4990331;28;20231;-69
2023/10/28 09:38:22;;;;;;;3.20;1.27;;;;;;;19.68;39.94;94987.41;4990628;28;20415;-69
2023/10/28 09:40:48;;;;;;;5.30;3.00;;;;;;;19.50;40.25;95006.03;4989962;28;20416;-68
2023/10/28 09:43:15;;;;;;;2.90;1.87;;;;;;;19.35;40.61;95007.63;4989273;28;20412;-69
2023/10/28 09:45:45;;;;;;;3.07;1.60;;;;;;;19.21;40.50;94996.53;4989584;28;20439;-69
2023/10/28 09:48:14;;;;;;;3.10;2.13;;;;;;;19.11;40.71;95006.44;4990023;28;20907;-69
2023/10/28 09:50:50;;;;;;;6.20;1.80;;;;;;;18.84;40.91;94994.06;4989801;28;20420;-69
2023/10/28 09:53:36;;;;;;;10.23;2.63;;;;;;;18.77;40.75;95007.13;4990152;28;20435;-69
2023/10/28 09:56:03;;;;;;;3.83;1.93;;;;;;;18.77;41.18;95003.63;4989340;28;20439;-68
2023/10/28 09:58:33;;;;;;;2.80;1.33;;;;;;;18.52;41.64;95014.00;4989943;28;20462;-69
2023/10/28 10:01:29;;;;;;;4.80;1.97;;;;;;;18.79;40.96;95013.13;4989497;28;20526;-69
2023/10/28 10:04:13;;;;;;;5.57;1.80;;;;;;;18.86;40.89;95017.84;4989480;28;20415;-68
2023/10/28 10:06:39;;;;;;;4.80;1.80;;;;;;;18.93;40.70;95009.09;4988137;28;20434;-69
2023/10/28 10:09:08;;;;;;;2.83;1.60;;;;;;;18.94;40.78;95012.59;4987122;28;20826;-68
2023/10/28 10:11:34;;;;;;;3.97;2.33;;;;;;;19.06;40.62;95007.88;4986751;28;20451;-69
2023/10/28 10:14:09;;;;;;;5.47;1.43;;;;;;;19.14;40.31;95013.28;4986762;28;20419;-69
2023/10/28 10:16:51;;;;;;;5.87;1.57;;;;;;;19.19;39.87;95008.31;4986600;28;20193;-68
2023/10/28 10:19:22;;;;;;;2.20;1.50;;;;;;;19.23;39.96;95007.84;4986429;28;20459;-68
2023/10/28 10:21:51;;;;;;;6.17;1.90;;;;;;;19.33;39.57;95005.09;4987000;28;20516;-68
2023/10/28 10:24:19;;;;;;;4.20;1.20;;;;;;;19.32;39.89;94994.59;4987095;28;20416;-68
2023/10/28 10:26:53;;;;;;;14.10;2.50;;;;;;;19.24;39.46;94988.22;4987356;28;20440;-68
2023/10/28 10:29:18;;;;;;;5.93;1.93;;;;;;;19.14;39.85;94990.16;4987743;28;20412;-68
2023/10/28 10:31:49;;;;;;;10.73;2.30;;;;;;;19.06;40.39;95002.53;4987275;28;20502;-69
2023/10/28 10:34:43;;;;;;;3.23;1.47;;;;;;;19.11;39.85;94989.63;4989928;28;20173;-68
2023/10/28 10:37:20;;;;;;;4.37;1.23;;;;;;;19.22;39.85;94989.38;4998928;28;20431;-69
2023/10/28 10:39:48;;;;;;;2.40;1.30;;;;;;;18.97;39.79;94989.19;5000040;28;20404;-69
2023/10/28 10:42:14;;;;;;;5.87;1.50;;;;;;;18.84;39.90;94988.75;4993176;28;20490;-69
2023/10/28 10:44:40;;;;;;;3.63;1.40;;;;;;;19.02;40.07;94991.41;4986515;28;20449;-68
2023/10/28 10:47:08;;;;;;;6.70;1.40;;;;;;;18.97;39.90;94991.84;4986641;28;20192;-68
2023/10/28 10:49:35;;;;;;;3.60;1.77;;;;;;;18.96;40.36;94999.97;4986797;28;20440;-69
2023/10/28 10:52:04;;;;;;;10.47;2.10;;;;;;;19.35;39.21;94994.31;4986422;28;20554;-68
2023/10/28 10:54:34;;;;;;;3.10;1.70;;;;;;;19.41;38.73;94996.34;4985679;28;20563;-69
2023/10/28 10:57:00;;;;;;;5.60;1.40;;;;;;;19.45;38.67;95003.03;4986581;28;20515;-70
2023/10/28 10:59:29;;;;;;;26.23;3.20;;;;;;;19.45;37.93;95003.84;4986878;28;20842;-68
2023/10/28 11:01:56;;;;;;;13.77;3.37;;;;;;;19.34;38.43;94992.63;4986870;28;20274;-68
2023/10/28 11:04:23;;;;;;;7.33;1.97;;;;;;;19.48;38.52;95008.03;4986348;28;20411;-68
2023/10/28 11:06:48;;;;;;;8.47;1.93;;;;;;;19.31;38.06;95007.06;4986389;28;20809;-68
2023/10/28 11:09:15;;;;;;;9.50;2.23;;;;;;;19.23;38.56;95007.03;4986446;28;20416;-69
2023/10/28 11:11:41;;;;;;;13.43;1.93;;;;;;;19.39;37.71;95000.97;4986212;28;20878;-69
2023/10/28 11:14:07;;;;;;;4.93;1.90;;;;;;;19.32;37.80;95006.06;4985791;28;20404;-69
2023/10/28 11:16:42;;;;;;;8.13;2.03;;;;;;;19.33;37.57;95012.25;5062055;28;20535;-68
2023/10/28 11:19:11;;;;;;;3.27;1.37;;;;;;;19.41;37.23;95009.63;5062076;28;20574;-68
2023/10/28 11:21:37;;;;;;;4.27;1.73;;;;;;;19.43;37.22;95005.00;5062227;28;20473;-69
2023/10/28 11:24:07;;;;;;;4.30;1.33;;;;;;;19.42;36.90;95008.66;5062024;28;21190;-69
2023/10/28 11:26:34;;;;;;;4.07;1.57;;;;;;;19.33;37.25;95017.56;5061707;28;21349;-70
2023/10/28 11:29:00;;;;;;;14.63;1.80;;;;;;;19.22;37.16;95008.00;5062246;28;20793;-68
2023/10/28 11:31:30;;;;;;;3.10;1.20;;;;;;;19.18;37.49;95025.25;5062436;28;20413;-70